createdAt,value
2018-01-31T01:52:20.600Z,0
2018-01-31T01:52:32.620Z,0
2018-01-31T01:53:32.705Z,0
2018-01-31T01:54:32.595Z,0
2018-01-31T01:55:32.623Z,0
2018-01-31T01:56:32.680Z,0
2018-01-31T01:57:32.685Z,0
2018-01-31T01:58:32.712Z,0
2018-01-31T01:59:32.627Z,0
2018-01-31T02:00:32.654Z,0
2018-01-31T02:01:32.653Z,0
2018-01-31T02:02:32.723Z,0
2018-01-31T02:03:32.652Z,0
2018-01-31T02:04:32.722Z,0
2018-01-31T02:05:32.688Z,0
2018-01-31T02:06:32.723Z,0
2018-01-31T02:07:32.656Z,0
2018-01-31T02:08:32.722Z,0
2018-01-31T02:09:32.724Z,0
2018-01-31T02:10:32.723Z,0
2018-01-31T02:11:32.625Z,0
2018-01-31T02:12:32.624Z,0
2018-01-31T02:13:32.671Z,0
2018-01-31T02:14:32.716Z,0
2018-01-31T02:15:32.695Z,0
2018-01-31T02:16:32.631Z,0
2018-01-31T02:17:32.661Z,0
2018-01-31T02:18:32.713Z,0
2018-01-31T02:19:32.633Z,0
2018-01-31T02:20:32.639Z,0
2018-01-31T02:21:32.715Z,0
2018-01-31T02:22:32.664Z,0
2018-01-31T02:23:32.603Z,0
2018-01-31T02:24:32.589Z,0
2018-01-31T02:25:32.643Z,0
2018-01-31T02:26:32.692Z,0
2018-01-31T02:27:32.603Z,0
2018-01-31T02:28:32.692Z,0
2018-01-31T02:29:32.662Z,0
2018-01-31T02:30:32.670Z,0
2018-01-31T02:31:32.677Z,0
2018-01-31T02:32:32.738Z,0
2018-01-31T02:33:32.677Z,0
2018-01-31T02:34:32.737Z,0
2018-01-31T02:35:32.767Z,0
2018-01-31T02:36:32.676Z,0
2018-01-31T02:37:32.741Z,0
2018-01-31T02:38:32.679Z,0
2018-01-31T02:39:32.830Z,0
2018-01-31T02:40:32.712Z,0
2018-01-31T02:41:32.695Z,0
2018-01-31T02:42:32.738Z,0
2018-01-31T02:43:32.665Z,0
2018-01-31T02:44:32.753Z,0
2018-01-31T02:45:32.654Z,0
2018-01-31T02:46:32.656Z,0
2018-01-31T02:47:32.724Z,0
2018-01-31T02:48:32.742Z,0
2018-01-31T02:49:32.716Z,0
2018-01-31T02:50:32.679Z,0
2018-01-31T02:51:32.748Z,0
2018-01-31T02:52:32.748Z,0
2018-01-31T02:53:32.754Z,0
2018-01-31T02:54:32.685Z,0
2018-01-31T02:55:32.687Z,0
2018-01-31T02:56:32.754Z,0
2018-01-31T02:57:32.687Z,0
2018-01-31T02:58:32.760Z,0
2018-01-31T02:59:32.692Z,0
2018-01-31T03:00:32.654Z,0
2018-01-31T03:01:32.643Z,0
2018-01-31T03:02:32.665Z,0
2018-01-31T03:03:32.704Z,0
2018-01-31T03:04:32.682Z,0
2018-01-31T03:05:32.649Z,0
2018-01-31T03:06:32.622Z,0
2018-01-31T03:07:32.716Z,0
2018-01-31T03:08:32.704Z,0
2018-01-31T03:09:32.742Z,0
2018-01-31T03:10:32.711Z,0
2018-01-31T03:11:32.750Z,0
2018-01-31T03:12:32.760Z,0
2018-01-31T03:13:32.675Z,0
2018-01-31T03:14:32.670Z,0
2018-01-31T03:15:32.669Z,0
2018-01-31T03:16:32.648Z,0
2018-01-31T03:17:32.635Z,0
2018-01-31T03:18:32.630Z,0
2018-01-31T03:19:32.714Z,0
2018-01-31T03:20:32.766Z,0
2018-01-31T03:21:32.702Z,0
2018-01-31T03:22:32.709Z,0
2018-01-31T03:23:32.767Z,0
2018-01-31T03:24:32.666Z,0
2018-01-31T03:25:32.775Z,0
2018-01-31T03:26:32.775Z,0
2018-01-31T03:27:32.802Z,0
2018-01-31T03:28:32.707Z,0
2018-01-31T03:29:32.797Z,0
2018-01-31T03:30:32.675Z,0
2018-01-31T03:31:32.672Z,0
2018-01-31T03:32:32.668Z,0
2018-01-31T03:33:32.665Z,0
2018-01-31T03:34:32.642Z,0
2018-01-31T03:35:32.706Z,0
2018-01-31T03:36:32.765Z,0
2018-01-31T03:37:32.743Z,0
2018-01-31T03:38:32.651Z,0
2018-01-31T03:39:32.730Z,0
2018-01-31T03:40:32.741Z,0
2018-01-31T03:41:32.674Z,0
2018-01-31T03:42:32.741Z,0
2018-01-31T03:43:32.740Z,0
2018-01-31T03:44:32.732Z,0
2018-01-31T03:45:32.743Z,0
2018-01-31T03:46:32.738Z,0
2018-01-31T03:47:32.717Z,0
2018-01-31T03:48:32.733Z,0
2018-01-31T03:49:32.740Z,0
2018-01-31T03:50:32.789Z,0
2018-01-31T03:51:32.722Z,0
2018-01-31T03:52:32.805Z,0
2018-01-31T03:53:32.725Z,0
2018-01-31T03:54:32.792Z,0
2018-01-31T03:55:32.726Z,0
2018-01-31T03:56:32.791Z,0
2018-01-31T03:57:32.790Z,0
2018-01-31T03:58:32.722Z,0
2018-01-31T03:59:32.723Z,0
2018-01-31T04:00:32.739Z,0
2018-01-31T04:01:32.745Z,0
2018-01-31T04:02:32.697Z,0
2018-01-31T04:03:32.743Z,0
2018-01-31T04:04:32.749Z,0
2018-01-31T04:05:32.652Z,0
2018-01-31T04:06:32.745Z,0
2018-01-31T04:07:32.652Z,0
2018-01-31T04:08:32.744Z,0
2018-01-31T04:09:32.657Z,0
2018-01-31T04:10:32.798Z,0
2018-01-31T04:11:32.735Z,0
2018-01-31T04:12:32.809Z,0
2018-01-31T04:13:32.735Z,0
2018-01-31T04:14:32.801Z,0
2018-01-31T04:15:32.795Z,0
2018-01-31T04:16:32.801Z,0
2018-01-31T04:17:32.806Z,0
2018-01-31T04:18:32.740Z,0
2018-01-31T04:19:32.803Z,0
2018-01-31T04:20:32.790Z,0
2018-01-31T04:21:32.702Z,0
2018-01-31T04:22:32.735Z,0
2018-01-31T04:23:32.793Z,0
2018-01-31T04:24:32.794Z,0
2018-01-31T04:25:32.676Z,0
2018-01-31T04:26:32.705Z,0
2018-01-31T04:27:32.705Z,0
2018-01-31T04:28:32.734Z,0
2018-01-31T04:29:32.702Z,0
2018-01-31T04:30:32.813Z,0
2018-01-31T04:31:32.750Z,0
2018-01-31T04:32:32.837Z,0
2018-01-31T04:33:32.821Z,0
2018-01-31T04:34:32.750Z,0
2018-01-31T04:35:32.749Z,0
2018-01-31T04:36:32.751Z,0
2018-01-31T04:37:32.747Z,0
2018-01-31T04:38:32.751Z,0
2018-01-31T04:39:32.839Z,0
2018-01-31T04:40:32.815Z,0
2018-01-31T04:41:32.820Z,0
2018-01-31T04:42:32.750Z,0
2018-01-31T04:43:32.752Z,0
2018-01-31T04:44:32.706Z,0
2018-01-31T04:45:32.831Z,0
2018-01-31T04:46:32.794Z,0
2018-01-31T04:47:32.753Z,0
2018-01-31T04:48:32.820Z,0
2018-01-31T04:49:32.823Z,0
2018-01-31T04:50:32.778Z,0
2018-01-31T04:51:32.756Z,0
2018-01-31T04:52:32.683Z,0
2018-01-31T04:53:32.808Z,0
2018-01-31T04:54:32.687Z,0
2018-01-31T04:55:32.778Z,0
2018-01-31T04:56:32.809Z,0
2018-01-31T04:57:32.698Z,0
2018-01-31T04:58:32.773Z,0
2018-01-31T04:59:32.691Z,0
2018-01-31T05:00:32.755Z,0
2018-01-31T05:01:32.826Z,0
2018-01-31T05:02:32.761Z,0
2018-01-31T05:03:32.831Z,0
2018-01-31T05:04:32.757Z,0
2018-01-31T05:05:32.829Z,0
2018-01-31T05:06:32.766Z,0
2018-01-31T05:07:32.831Z,0
2018-01-31T05:08:32.764Z,0
2018-01-31T05:09:32.839Z,0
2018-01-31T05:10:32.761Z,0
2018-01-31T05:11:32.834Z,0
2018-01-31T05:12:32.840Z,0
2018-01-31T05:13:32.770Z,0
2018-01-31T05:14:32.835Z,0
2018-01-31T05:15:32.772Z,0
2018-01-31T05:16:32.837Z,0
2018-01-31T05:17:32.775Z,0
2018-01-31T05:18:32.838Z,0
2018-01-31T05:19:32.775Z,0
2018-01-31T05:20:32.844Z,0
2018-01-31T05:21:32.777Z,0
2018-01-31T05:22:32.846Z,0
2018-01-31T05:23:32.842Z,0
2018-01-31T05:24:32.780Z,0
2018-01-31T05:25:32.848Z,0
2018-01-31T05:26:32.806Z,0
2018-01-31T05:27:32.782Z,0
2018-01-31T05:28:32.842Z,0
2018-01-31T05:29:32.781Z,0
2018-01-31T05:30:32.717Z,0
2018-01-31T05:31:32.742Z,0
2018-01-31T05:32:32.794Z,0
2018-01-31T05:33:32.737Z,0
2018-01-31T05:34:32.796Z,0
2018-01-31T05:35:32.795Z,0
2018-01-31T05:36:32.712Z,0
2018-01-31T05:37:32.815Z,0
2018-01-31T05:38:32.714Z,0
2018-01-31T05:39:32.738Z,0
2018-01-31T05:40:32.740Z,0
2018-01-31T05:41:32.758Z,0
2018-01-31T05:42:32.799Z,0
2018-01-31T05:43:32.837Z,0
2018-01-31T05:44:32.822Z,0
2018-01-31T05:45:32.842Z,0
2018-01-31T05:46:32.788Z,0
2018-01-31T05:47:32.821Z,0
2018-01-31T05:48:32.825Z,0
2018-01-31T05:49:32.742Z,0
2018-01-31T05:50:32.806Z,0
2018-01-31T05:51:32.857Z,0
2018-01-31T05:52:32.793Z,0
2018-01-31T05:53:32.810Z,0
2018-01-31T05:54:32.744Z,0
2018-01-31T05:55:32.765Z,0
2018-01-31T05:56:32.758Z,0
2018-01-31T05:57:32.795Z,0
2018-01-31T05:58:32.830Z,0
2018-01-31T05:59:32.853Z,0
2018-01-31T06:00:32.866Z,0
2018-01-31T06:01:32.864Z,0
2018-01-31T06:02:32.764Z,0
2018-01-31T06:03:32.748Z,0
2018-01-31T06:04:32.836Z,0
2018-01-31T06:05:32.769Z,0
2018-01-31T06:06:32.816Z,0
2018-01-31T06:07:32.855Z,0
2018-01-31T06:08:32.753Z,0
2018-01-31T06:09:32.801Z,0
2018-01-31T06:10:32.770Z,0
2018-01-31T06:11:32.860Z,0
2018-01-31T06:12:32.777Z,0
2018-01-31T06:13:32.802Z,0
2018-01-31T06:14:32.802Z,0
2018-01-31T06:15:32.818Z,0
2018-01-31T06:16:32.864Z,0
2018-01-31T06:17:32.762Z,0
2018-01-31T06:18:32.821Z,0
2018-01-31T06:19:32.874Z,0
2018-01-31T06:20:32.883Z,0
2018-01-31T06:21:32.806Z,0
2018-01-31T06:22:32.876Z,0
2018-01-31T06:23:32.807Z,0
2018-01-31T06:24:32.876Z,0
2018-01-31T06:25:32.811Z,0
2018-01-31T06:26:32.878Z,0
2018-01-31T06:27:32.811Z,0
2018-01-31T06:28:32.879Z,0
2018-01-31T06:29:32.808Z,0
2018-01-31T06:30:32.758Z,4
2018-01-31T06:31:32.751Z,4
2018-01-31T06:32:32.701Z,4
2018-01-31T06:33:32.821Z,4
2018-01-31T06:34:32.756Z,0
2018-01-31T06:35:32.808Z,4
2018-01-31T06:36:32.817Z,4
2018-01-31T06:37:32.708Z,8
2018-01-31T06:38:32.702Z,8
2018-01-31T06:39:32.769Z,8
2018-01-31T06:40:32.794Z,8
2018-01-31T06:41:32.888Z,8
2018-01-31T06:42:32.826Z,8
2018-01-31T06:43:32.887Z,8
2018-01-31T06:44:32.821Z,8
2018-01-31T06:45:32.897Z,8
2018-01-31T06:46:32.825Z,8
2018-01-31T06:47:32.890Z,52
2018-01-31T06:48:32.890Z,64
2018-01-31T06:49:32.850Z,72
2018-01-31T06:50:32.893Z,84
2018-01-31T06:51:32.829Z,92
2018-01-31T06:52:32.899Z,100
2018-01-31T06:53:32.900Z,104
2018-01-31T06:54:32.895Z,108
2018-01-31T06:55:32.829Z,120
2018-01-31T06:56:32.896Z,136
2018-01-31T06:57:32.832Z,144
2018-01-31T06:58:32.897Z,148
2018-01-31T06:59:32.828Z,140
2018-01-31T07:00:32.905Z,132
2018-01-31T07:01:32.867Z,128
2018-01-31T07:02:32.802Z,144
2018-01-31T07:03:32.782Z,160
2018-01-31T07:04:32.808Z,176
2018-01-31T07:05:32.890Z,192
2018-01-31T07:06:32.854Z,196
2018-01-31T07:07:32.810Z,220
2018-01-31T07:08:32.895Z,260
2018-01-31T07:09:32.896Z,284
2018-01-31T07:10:32.905Z,316
2018-01-31T07:11:32.907Z,380
2018-01-31T07:12:32.907Z,448
2018-01-31T07:13:32.858Z,512
2018-01-31T07:14:32.907Z,540
2018-01-31T07:15:32.839Z,600
2018-01-31T07:16:32.911Z,652
2018-01-31T07:17:32.839Z,708
2018-01-31T07:18:32.915Z,780
2018-01-31T07:19:32.913Z,848
2018-01-31T07:20:32.915Z,944
2018-01-31T07:21:32.866Z,1044
2018-01-31T07:22:32.865Z,1140
2018-01-31T07:23:32.865Z,1148
2018-01-31T07:24:32.863Z,1136
2018-01-31T07:25:32.822Z,1136
2018-01-31T07:26:32.971Z,1072
2018-01-31T07:27:32.829Z,1040
2018-01-31T07:28:32.864Z,1088
2018-01-31T07:29:32.879Z,1216
2018-01-31T07:30:32.785Z,1356
2018-01-31T07:31:32.902Z,1412
2018-01-31T07:32:32.871Z,1432
2018-01-31T07:33:32.938Z,1432
2018-01-31T07:34:32.806Z,1448
2018-01-31T07:35:32.904Z,1428
2018-01-31T07:36:32.912Z,1492
2018-01-31T07:37:32.892Z,1532
2018-01-31T07:38:32.878Z,1536
2018-01-31T07:39:32.912Z,1556
2018-01-31T07:40:32.811Z,1652
2018-01-31T07:41:32.929Z,1700
2018-01-31T07:42:32.953Z,1752
2018-01-31T07:43:32.924Z,1864
2018-01-31T07:44:32.857Z,1968
2018-01-31T07:45:32.930Z,1988
2018-01-31T07:46:32.859Z,2048
2018-01-31T07:47:32.932Z,2196
2018-01-31T07:48:32.927Z,2292
2018-01-31T07:49:32.857Z,2388
2018-01-31T07:50:32.928Z,2616
2018-01-31T07:51:32.855Z,2836
2018-01-31T07:52:32.930Z,2904
2018-01-31T07:53:32.860Z,2980
2018-01-31T07:54:32.931Z,3336
2018-01-31T07:55:32.858Z,3788
2018-01-31T07:56:32.955Z,3808
2018-01-31T07:57:32.932Z,3716
2018-01-31T07:58:32.859Z,3640
2018-01-31T07:59:32.934Z,3476
2018-01-31T08:00:32.862Z,3244
2018-01-31T08:01:32.940Z,3324
2018-01-31T08:02:32.860Z,3392
2018-01-31T08:03:32.935Z,3328
2018-01-31T08:04:32.863Z,3176
2018-01-31T08:05:32.939Z,3244
2018-01-31T08:06:32.869Z,3376
2018-01-31T08:07:32.944Z,3588
2018-01-31T08:08:32.817Z,3644
2018-01-31T08:09:32.940Z,3552
2018-01-31T08:10:32.870Z,3684
2018-01-31T08:11:32.766Z,3912
2018-01-31T08:12:32.812Z,4000
2018-01-31T08:13:32.877Z,4084
2018-01-31T08:14:32.775Z,4224
2018-01-31T08:15:32.838Z,4668
2018-01-31T08:16:32.829Z,5148
2018-01-31T08:17:32.821Z,6008
2018-01-31T08:18:32.797Z,6496
2018-01-31T08:19:32.780Z,6340
2018-01-31T08:20:32.800Z,6824
2018-01-31T08:21:32.877Z,7144
2018-01-31T08:22:32.889Z,6960
2018-01-31T08:23:32.950Z,7052
2018-01-31T08:24:32.919Z,7156
2018-01-31T08:25:32.952Z,7540
2018-01-31T08:26:32.882Z,7680
2018-01-31T08:27:32.954Z,6692
2018-01-31T08:28:32.886Z,6884
2018-01-31T08:29:32.957Z,6668
2018-01-31T08:30:32.888Z,6772
2018-01-31T08:31:32.957Z,7212
2018-01-31T08:32:32.955Z,8536
2018-01-31T08:33:32.887Z,8800
2018-01-31T08:34:32.858Z,8856
2018-01-31T08:35:32.956Z,10480
2018-01-31T08:36:32.880Z,10268
2018-01-31T08:37:32.881Z,10136
2018-01-31T08:38:32.957Z,10012
2018-01-31T08:39:32.991Z,10968
2018-01-31T08:40:32.970Z,11624
2018-01-31T08:41:32.896Z,10864
2018-01-31T08:42:32.983Z,12004
2018-01-31T08:43:32.893Z,13564
2018-01-31T08:44:33.041Z,13408
2018-01-31T08:45:32.962Z,11784
2018-01-31T08:46:32.894Z,10412
2018-01-31T08:47:32.963Z,10316
2018-01-31T08:48:32.891Z,10516
2018-01-31T08:49:32.846Z,9568
2018-01-31T08:50:32.896Z,10336
2018-01-31T08:51:32.877Z,9784
2018-01-31T08:52:32.944Z,9384
2018-01-31T08:53:32.893Z,10384
2018-01-31T08:54:32.918Z,10676
2018-01-31T08:55:32.945Z,10868
2018-01-31T08:56:32.856Z,11400
2018-01-31T08:57:32.912Z,12220
2018-01-31T08:58:32.877Z,12848
2018-01-31T08:59:32.846Z,12760
2018-01-31T09:00:32.842Z,13576
2018-01-31T09:01:32.892Z,14960
2018-01-31T09:02:32.859Z,16784
2018-01-31T09:03:32.897Z,17668
2018-01-31T09:04:32.850Z,18796
2018-01-31T09:05:32.938Z,18588
2018-01-31T09:06:32.899Z,18344
2018-01-31T09:07:32.879Z,18308
2018-01-31T09:08:32.878Z,20048
2018-01-31T09:09:33.009Z,21024
2018-01-31T09:10:32.918Z,19368
2018-01-31T09:11:32.904Z,18276
2018-01-31T09:12:32.984Z,19292
2018-01-31T09:13:32.913Z,21568
2018-01-31T09:14:32.980Z,22112
2018-01-31T09:15:32.979Z,22208
2018-01-31T09:16:32.981Z,22016
2018-01-31T09:17:32.915Z,21408
2018-01-31T09:18:32.916Z,19812
2018-01-31T09:19:32.982Z,17368
2018-01-31T09:20:32.914Z,15876
2018-01-31T09:21:32.984Z,15120
2018-01-31T09:22:32.916Z,12336
2018-01-31T09:23:32.984Z,11308
2018-01-31T09:24:32.914Z,10340
2018-01-31T09:25:32.986Z,9520
2018-01-31T09:26:32.917Z,8832
2018-01-31T09:27:32.988Z,9336
2018-01-31T09:28:32.918Z,9660
2018-01-31T09:29:32.919Z,8980
2018-01-31T09:30:33.009Z,9208
2018-01-31T09:31:32.923Z,8544
2018-01-31T09:32:32.921Z,8260
2018-01-31T09:33:32.991Z,8952
2018-01-31T09:34:32.920Z,8492
2018-01-31T09:35:32.990Z,8284
2018-01-31T09:36:33.045Z,9524
2018-01-31T09:37:32.994Z,10224
2018-01-31T09:38:32.934Z,10420
2018-01-31T09:39:32.995Z,10192
2018-01-31T09:40:32.929Z,12828
2018-01-31T09:41:32.983Z,14296
2018-01-31T09:42:32.931Z,15520
2018-01-31T09:43:32.927Z,17256
2018-01-31T09:44:32.901Z,19172
2018-01-31T09:45:32.989Z,22112
2018-01-31T09:46:32.979Z,23232
2018-01-31T09:47:32.985Z,22784
2018-01-31T09:48:33.037Z,22688
2018-01-31T09:49:32.926Z,22400
2018-01-31T09:50:32.930Z,23040
2018-01-31T09:51:33.002Z,24320
2018-01-31T09:52:34.937Z,25792
2018-01-31T09:53:33.066Z,26240
2018-01-31T09:54:32.934Z,25792
2018-01-31T09:55:33.006Z,25152
2018-01-31T09:56:32.932Z,24896
2018-01-31T09:57:33.006Z,24992
2018-01-31T09:58:32.939Z,24640
2018-01-31T09:59:33.010Z,23392
2018-01-31T10:00:32.941Z,22528
2018-01-31T10:01:33.009Z,21920
2018-01-31T10:02:32.934Z,21472
2018-01-31T10:03:33.012Z,22080
2018-01-31T10:04:32.938Z,22592
2018-01-31T10:05:33.010Z,22976
2018-01-31T10:06:32.942Z,23008
2018-01-31T10:07:33.011Z,23104
2018-01-31T10:08:32.938Z,23232
2018-01-31T10:09:33.013Z,23104
2018-01-31T10:10:32.945Z,22752
2018-01-31T10:11:33.014Z,22528
2018-01-31T10:12:32.947Z,22528
2018-01-31T10:13:33.029Z,22528
2018-01-31T10:14:32.941Z,22496
2018-01-31T10:15:33.016Z,22656
2018-01-31T10:16:32.950Z,22880
2018-01-31T10:17:33.076Z,23104
2018-01-31T10:18:33.057Z,23104
2018-01-31T10:19:32.948Z,23200
2018-01-31T10:20:33.024Z,24128
2018-01-31T10:21:33.023Z,25216
2018-01-31T10:22:32.951Z,26080
2018-01-31T10:23:33.027Z,26816
2018-01-31T10:24:32.953Z,27392
2018-01-31T10:25:32.904Z,28032
2018-01-31T10:26:33.024Z,28384
2018-01-31T10:27:33.026Z,28320
2018-01-31T10:28:32.950Z,27936
2018-01-31T10:29:33.026Z,27008
2018-01-31T10:30:33.026Z,25760
2018-01-31T10:31:32.954Z,24352
2018-01-31T10:32:33.026Z,23744
2018-01-31T10:33:32.952Z,24224
2018-01-31T10:34:33.036Z,25312
2018-01-31T10:35:32.973Z,26368
2018-01-31T10:36:32.914Z,26368
2018-01-31T10:37:32.955Z,26208
2018-01-31T10:38:32.955Z,25920
2018-01-31T10:39:33.034Z,25536
2018-01-31T10:40:32.955Z,25408
2018-01-31T10:41:33.032Z,25504
2018-01-31T10:42:33.009Z,25760
2018-01-31T10:43:33.045Z,25920
2018-01-31T10:44:33.036Z,24704
2018-01-31T10:45:33.005Z,24288
2018-01-31T10:46:33.037Z,23520
2018-01-31T10:47:33.036Z,23104
2018-01-31T10:48:32.967Z,22688
2018-01-31T10:49:33.040Z,22656
2018-01-31T10:50:32.968Z,23104
2018-01-31T10:51:33.040Z,23456
2018-01-31T10:52:32.971Z,23200
2018-01-31T10:53:33.040Z,22848
2018-01-31T10:57:29.193Z,22976
2018-01-31T10:57:33.002Z,23776
2018-01-31T10:58:33.045Z,25184
2018-01-31T10:59:33.016Z,26752
2018-01-31T11:00:33.044Z,27744
2018-01-31T11:01:32.899Z,28384
2018-01-31T11:02:32.896Z,28640
2018-01-31T11:03:32.900Z,29344
2018-01-31T11:04:32.988Z,30048
2018-01-31T11:05:32.905Z,30016
2018-01-31T11:06:32.942Z,30496
2018-01-31T11:07:32.944Z,30880
2018-01-31T11:08:32.904Z,31488
2018-01-31T11:09:32.989Z,31328
2018-01-31T11:10:32.901Z,29632
2018-01-31T11:11:32.975Z,27328
2018-01-31T11:12:32.979Z,27360
2018-01-31T11:13:33.017Z,28928
2018-01-31T11:14:32.935Z,29248
2018-01-31T11:15:32.974Z,27872
2018-01-31T11:16:33.020Z,25728
2018-01-31T11:17:33.042Z,25216
2018-01-31T11:18:32.957Z,26016
2018-01-31T11:19:33.048Z,27296
2018-01-31T11:20:32.940Z,27040
2018-01-31T11:21:32.937Z,27072
2018-01-31T11:22:32.983Z,27360
2018-01-31T11:23:32.998Z,27936
2018-01-31T11:24:33.027Z,28384
2018-01-31T11:25:33.001Z,31904
2018-01-31T11:26:33.046Z,34368
2018-01-31T11:27:33.004Z,34592
2018-01-31T11:28:32.952Z,32000
2018-01-31T11:29:32.939Z,28128
2018-01-31T11:30:32.944Z,26720
2018-01-31T11:31:32.998Z,28064
2018-01-31T11:32:32.999Z,28544
2018-01-31T11:33:33.066Z,27936
2018-01-31T11:34:33.002Z,27328
2018-01-31T11:35:33.066Z,27424
2018-01-31T11:36:32.999Z,29376
2018-01-31T11:37:33.068Z,31808
2018-01-31T11:38:33.000Z,31616
2018-01-31T11:39:33.072Z,29856
2018-01-31T11:40:33.000Z,28160
2018-01-31T11:41:33.070Z,27040
2018-01-31T11:42:33.136Z,25216
2018-01-31T11:43:33.072Z,24512
2018-01-31T11:44:33.002Z,24384
2018-01-31T11:45:33.072Z,24480
2018-01-31T11:46:32.997Z,23840
2018-01-31T11:47:33.073Z,23712
2018-01-31T11:48:33.072Z,25216
2018-01-31T11:49:33.004Z,26144
2018-01-31T11:50:33.076Z,25856
2018-01-31T11:51:33.075Z,25504
2018-01-31T11:52:33.002Z,25760
2018-01-31T11:53:33.077Z,25664
2018-01-31T11:54:33.005Z,25056
2018-01-31T11:55:33.078Z,24800
2018-01-31T11:56:33.039Z,24832
2018-01-31T11:57:33.080Z,25152
2018-01-31T11:58:33.010Z,25280
2018-01-31T11:59:33.081Z,25312
2018-01-31T12:00:33.015Z,25312
2018-01-31T12:01:33.080Z,25728
2018-01-31T12:02:33.013Z,26432
2018-01-31T12:03:33.083Z,27520
2018-01-31T12:04:33.010Z,28672
2018-01-31T12:05:33.085Z,29408
2018-01-31T12:06:33.016Z,29504
2018-01-31T12:07:33.082Z,28704
2018-01-31T12:08:33.043Z,27040
2018-01-31T12:09:33.085Z,25504
2018-01-31T12:10:33.060Z,24320
2018-01-31T12:11:33.084Z,23520
2018-01-31T12:12:33.025Z,22304
2018-01-31T12:13:33.124Z,19784
2018-01-31T12:14:33.030Z,17360
2018-01-31T12:15:33.091Z,15660
2018-01-31T12:16:33.048Z,14172
2018-01-31T12:17:33.091Z,13916
2018-01-31T12:18:33.244Z,13472
2018-01-31T12:19:33.024Z,12516
2018-01-31T12:20:33.091Z,11488
2018-01-31T12:21:33.025Z,11268
2018-01-31T12:22:33.021Z,10676
2018-01-31T12:23:33.127Z,10312
2018-01-31T12:24:33.025Z,9944
2018-01-31T12:25:33.098Z,9560
2018-01-31T12:26:33.027Z,9972
2018-01-31T12:27:33.103Z,10928
2018-01-31T12:28:33.024Z,11848
2018-01-31T12:29:33.096Z,12620
2018-01-31T12:30:33.036Z,13424
2018-01-31T12:31:33.100Z,14148
2018-01-31T12:32:33.098Z,14684
2018-01-31T12:33:33.034Z,15388
2018-01-31T12:34:33.117Z,15952
2018-01-31T12:35:33.101Z,16340
2018-01-31T12:36:33.040Z,15940
2018-01-31T12:37:33.105Z,15128
2018-01-31T12:38:33.034Z,14228
2018-01-31T12:39:33.106Z,13400
2018-01-31T12:40:33.080Z,12776
2018-01-31T12:41:33.134Z,12316
2018-01-31T12:42:33.107Z,12420
2018-01-31T12:43:33.007Z,12768
2018-01-31T12:44:33.029Z,13048
2018-01-31T12:45:33.093Z,13456
2018-01-31T12:46:33.099Z,13920
2018-01-31T12:47:33.105Z,14532
2018-01-31T12:48:32.990Z,15032
2018-01-31T12:49:33.107Z,15268
2018-01-31T12:50:32.991Z,15388
2018-01-31T12:51:33.015Z,15236
2018-01-31T12:52:33.046Z,15036
2018-01-31T12:53:33.113Z,14416
2018-01-31T12:54:33.041Z,13752
2018-01-31T12:55:33.112Z,13444
2018-01-31T12:56:33.046Z,13652
2018-01-31T12:57:33.113Z,14248
2018-01-31T12:58:33.043Z,14996
2018-01-31T12:59:33.115Z,15664
2018-01-31T13:00:33.047Z,15856
2018-01-31T13:01:33.119Z,15236
2018-01-31T13:02:33.048Z,13876
2018-01-31T13:03:33.118Z,12348
2018-01-31T13:04:33.050Z,10968
2018-01-31T13:05:33.120Z,10076
2018-01-31T13:06:33.051Z,9768
2018-01-31T13:07:33.121Z,9672
2018-01-31T13:08:33.053Z,9804
2018-01-31T13:09:33.123Z,9912
2018-01-31T13:10:33.055Z,9748
2018-01-31T13:11:33.123Z,9376
2018-01-31T13:12:33.051Z,8924
2018-01-31T13:13:33.127Z,8876
2018-01-31T13:14:33.053Z,8956
2018-01-31T13:15:33.124Z,8600
2018-01-31T13:16:33.054Z,8068
2018-01-31T13:17:33.126Z,7876
2018-01-31T13:18:33.050Z,8252
2018-01-31T13:19:33.130Z,8496
2018-01-31T13:20:33.129Z,9284
2018-01-31T13:21:33.129Z,10368
2018-01-31T13:22:33.086Z,11204
2018-01-31T13:23:33.059Z,12240
2018-01-31T13:24:33.022Z,12784
2018-01-31T13:25:33.021Z,12168
2018-01-31T13:26:33.082Z,10484
2018-01-31T13:27:33.139Z,8292
2018-01-31T13:28:33.093Z,6828
2018-01-31T13:29:33.084Z,6140
2018-01-31T13:30:33.081Z,5592
2018-01-31T13:31:33.081Z,5552
2018-01-31T13:32:33.138Z,6056
2018-01-31T13:33:33.070Z,6004
2018-01-31T13:34:33.141Z,5972
2018-01-31T13:35:33.069Z,6944
2018-01-31T13:36:33.137Z,7264
2018-01-31T13:37:33.140Z,7052
2018-01-31T13:38:33.073Z,7192
2018-01-31T13:39:33.073Z,7264
2018-01-31T13:40:33.140Z,7544
2018-01-31T13:41:33.077Z,8104
2018-01-31T13:42:33.071Z,8796
2018-01-31T13:43:33.130Z,9208
2018-01-31T13:44:33.136Z,9652
2018-01-31T13:45:33.054Z,10192
2018-01-31T13:46:33.106Z,10224
2018-01-31T13:47:33.112Z,10556
2018-01-31T13:48:33.090Z,10960
2018-01-31T13:49:33.025Z,11628
2018-01-31T13:50:33.034Z,11908
2018-01-31T13:51:33.097Z,10788
2018-01-31T13:52:33.080Z,10288
2018-01-31T13:53:33.149Z,10048
2018-01-31T13:54:33.128Z,10176
2018-01-31T13:55:33.151Z,10744
2018-01-31T13:56:33.084Z,10856
2018-01-31T13:57:33.151Z,10068
2018-01-31T13:58:33.077Z,10308
2018-01-31T13:59:33.152Z,10276
2018-01-31T14:00:33.081Z,9364
2018-01-31T14:01:33.154Z,8944
2018-01-31T14:02:33.086Z,9488
2018-01-31T14:03:33.084Z,10016
2018-01-31T14:04:33.089Z,10304
2018-01-31T14:05:33.159Z,9772
2018-01-31T14:06:33.083Z,9644
2018-01-31T14:07:33.089Z,9360
2018-01-31T14:08:33.164Z,8968
2018-01-31T14:09:33.093Z,8504
2018-01-31T14:10:33.159Z,8408
2018-01-31T14:11:33.129Z,9320
2018-01-31T14:12:33.085Z,10076
2018-01-31T14:13:33.165Z,10520
2018-01-31T14:14:33.092Z,11380
2018-01-31T14:15:33.163Z,12996
2018-01-31T14:16:33.163Z,14200
2018-01-31T14:17:33.094Z,14540
2018-01-31T14:18:33.161Z,14604
2018-01-31T14:19:33.191Z,14696
2018-01-31T14:20:33.092Z,14744
2018-01-31T14:21:33.167Z,14900
2018-01-31T14:22:33.135Z,14972
2018-01-31T14:23:33.123Z,15020
2018-01-31T14:24:33.078Z,15520
2018-01-31T14:25:33.070Z,15428
2018-01-31T14:26:33.047Z,14924
2018-01-31T14:27:33.051Z,14512
2018-01-31T14:28:33.074Z,14124
2018-01-31T14:29:33.073Z,13372
2018-01-31T14:30:33.174Z,12840
2018-01-31T14:31:33.094Z,12556
2018-01-31T14:32:33.173Z,11900
2018-01-31T14:33:33.100Z,11428
2018-01-31T14:34:33.176Z,11184
2018-01-31T14:35:33.098Z,10124
2018-01-31T14:36:33.175Z,9248
2018-01-31T14:37:33.102Z,9568
2018-01-31T14:38:33.105Z,9220
2018-01-31T14:39:33.112Z,8816
2018-01-31T14:40:33.178Z,7788
2018-01-31T14:41:33.110Z,7172
2018-01-31T14:42:33.178Z,7016
2018-01-31T14:43:33.108Z,7236
2018-01-31T14:44:33.110Z,7692
2018-01-31T14:45:33.111Z,7416
2018-01-31T14:46:33.182Z,6944
2018-01-31T14:47:33.155Z,6876
2018-01-31T14:48:33.183Z,7532
2018-01-31T14:49:33.117Z,8220
2018-01-31T14:50:33.120Z,8892
2018-01-31T14:51:33.184Z,8924
2018-01-31T14:52:33.151Z,8340
2018-01-31T14:53:33.065Z,8096
2018-01-31T14:54:33.128Z,8256
2018-01-31T14:55:33.090Z,7504
2018-01-31T14:56:33.112Z,6820
2018-01-31T14:57:33.208Z,6284
2018-01-31T14:58:33.136Z,5860
2018-01-31T14:59:33.114Z,5428
2018-01-31T15:00:33.075Z,4880
2018-01-31T15:01:33.073Z,4972
2018-01-31T15:02:33.201Z,5268
2018-01-31T15:03:33.123Z,5648
2018-01-31T15:04:33.193Z,5772
2018-01-31T15:05:33.121Z,5616
2018-01-31T15:06:33.193Z,4888
2018-01-31T15:07:33.196Z,4756
2018-01-31T15:08:33.127Z,5056
2018-01-31T15:09:33.195Z,5220
2018-01-31T15:10:33.128Z,4980
2018-01-31T15:11:33.198Z,4632
2018-01-31T15:12:33.197Z,4308
2018-01-31T15:13:33.124Z,3716
2018-01-31T15:14:33.132Z,3772
2018-01-31T15:15:33.199Z,3780
2018-01-31T15:16:33.128Z,3672
2018-01-31T15:17:33.230Z,3340
2018-01-31T15:18:33.133Z,3072
2018-01-31T15:19:33.202Z,2772
2018-01-31T15:20:33.152Z,2500
2018-01-31T15:21:33.132Z,2388
2018-01-31T15:22:33.125Z,2320
2018-01-31T15:23:33.055Z,2276
2018-01-31T15:24:33.030Z,2224
2018-01-31T15:25:33.037Z,2092
2018-01-31T15:26:33.035Z,2020
2018-01-31T15:27:33.136Z,2192
2018-01-31T15:28:33.035Z,2164
2018-01-31T15:29:33.056Z,2068
2018-01-31T15:30:33.161Z,2012
2018-01-31T15:31:33.151Z,1700
2018-01-31T15:32:33.070Z,1268